sensor_id;sensor_type;location;lat;lon;timestamp;P1;durP1;ratioP1;P2;durP2;ratioP2
21492;SDS011;10908;50.690;4.400;2022-12-22T00:02:21;7.03;;;4.60;;
21492;SDS011;10908;50.690;4.400;2022-12-22T00:05:17;6.57;;;4.22;;
21492;SDS011;10908;50.690;4.400;2022-12-22T00:08:03;9.18;;;4.60;;
21492;SDS011;10908;50.690;4.400;2022-12-22T00:10:48;8.15;;;4.50;;
21492;SDS011;10908;50.690;4.400;2022-12-22T00:13:32;7.03;;;4.10;;
21492;SDS011;10908;50.690;4.400;2022-12-22T00:16:17;7.45;;;4.43;;
21492;SDS011;10908;50.690;4.400;2022-12-22T00:19:02;6.85;;;4.32;;
21492;SDS011;10908;50.690;4.400;2022-12-22T00:21:51;8.43;;;4.70;;
21492;SDS011;10908;50.690;4.400;2022-12-22T00:24:35;8.15;;;4.72;;
21492;SDS011;10908;50.690;4.400;2022-12-22T00:27:24;7.07;;;4.75;;
21492;SDS011;10908;50.690;4.400;2022-12-22T00:30:12;8.50;;;5.40;;
21492;SDS011;10908;50.690;4.400;2022-12-22T00:32:57;7.70;;;5.15;;
21492;SDS011;10908;50.690;4.400;2022-12-22T00:35:42;7.85;;;4.97;;
21492;SDS011;10908;50.690;4.400;2022-12-22T00:38:26;8.52;;;5.28;;
21492;SDS011;10908;50.690;4.400;2022-12-22T00:41:11;7.63;;;5.13;;
21492;SDS011;10908;50.690;4.400;2022-12-22T00:43:55;8.15;;;5.28;;
21492;SDS011;10908;50.690;4.400;2022-12-22T00:46:39;8.40;;;4.82;;
21492;SDS011;10908;50.690;4.400;2022-12-22T00:49:26;8.40;;;5.38;;
21492;SDS011;10908;50.690;4.400;2022-12-22T00:52:12;8.45;;;4.90;;
21492;SDS011;10908;50.690;4.400;2022-12-22T00:54:57;7.57;;;5.10;;
21492;SDS011;10908;50.690;4.400;2022-12-22T00:57:41;7.35;;;4.80;;
21492;SDS011;10908;50.690;4.400;2022-12-22T01:00:26;8.40;;;4.65;;
21492;SDS011;10908;50.690;4.400;2022-12-22T01:03:11;6.32;;;4.18;;
21492;SDS011;10908;50.690;4.400;2022-12-22T01:05:55;7.88;;;4.57;;
21492;SDS011;10908;50.690;4.400;2022-12-22T01:08:43;6.20;;;3.92;;
21492;SDS011;10908;50.690;4.400;2022-12-22T01:11:27;6.90;;;4.47;;
21492;SDS011;10908;50.690;4.400;2022-12-22T01:14:12;8.27;;;4.00;;
21492;SDS011;10908;50.690;4.400;2022-12-22T01:16:58;7.25;;;4.35;;
21492;SDS011;10908;50.690;4.400;2022-12-22T01:19:43;6.57;;;4.35;;
21492;SDS011;10908;50.690;4.400;2022-12-22T01:22:27;6.35;;;3.85;;
21492;SDS011;10908;50.690;4.400;2022-12-22T01:25:14;7.00;;;4.20;;
21492;SDS011;10908;50.690;4.400;2022-12-22T01:27:59;7.57;;;4.70;;
21492;SDS011;10908;50.690;4.400;2022-12-22T01:30:43;8.90;;;4.00;;
21492;SDS011;10908;50.690;4.400;2022-12-22T01:33:27;10.30;;;4.10;;
21492;SDS011;10908;50.690;4.400;2022-12-22T01:36:12;6.65;;;3.95;;
21492;SDS011;10908;50.690;4.400;2022-12-22T01:38:56;5.82;;;3.88;;
21492;SDS011;10908;50.690;4.400;2022-12-22T01:41:40;6.53;;;3.97;;
21492;SDS011;10908;50.690;4.400;2022-12-22T01:44:25;6.10;;;3.80;;
21492;SDS011;10908;50.690;4.400;2022-12-22T01:50:12;7.00;;;4.05;;
21492;SDS011;10908;50.690;4.400;2022-12-22T01:53:18;8.20;;;4.18;;
21492;SDS011;10908;50.690;4.400;2022-12-22T01:56:06;6.05;;;3.20;;
21492;SDS011;10908;50.690;4.400;2022-12-22T01:58:54;8.27;;;3.60;;
21492;SDS011;10908;50.690;4.400;2022-12-22T02:01:41;6.60;;;3.33;;
21492;SDS011;10908;50.690;4.400;2022-12-22T02:04:29;10.88;;;3.80;;
21492;SDS011;10908;50.690;4.400;2022-12-22T02:26:14;7.88;;;3.58;;
21492;SDS011;10908;50.690;4.400;2022-12-22T02:29:09;7.78;;;4.47;;
21492;SDS011;10908;50.690;4.400;2022-12-22T02:31:56;12.20;;;5.95;;
21492;SDS011;10908;50.690;4.400;2022-12-22T02:34:40;10.02;;;5.32;;
21492;SDS011;10908;50.690;4.400;2022-12-22T02:43:44;8.05;;;3.33;;
21492;SDS011;10908;50.690;4.400;2022-12-22T02:49:52;6.70;;;3.38;;
21492;SDS011;10908;50.690;4.400;2022-12-22T02:52:42;7.38;;;3.63;;
21492;SDS011;10908;50.690;4.400;2022-12-22T02:55:28;6.20;;;3.58;;
21492;SDS011;10908;50.690;4.400;2022-12-22T02:58:13;5.88;;;3.35;;
21492;SDS011;10908;50.690;4.400;2022-12-22T03:00:58;6.70;;;3.55;;
21492;SDS011;10908;50.690;4.400;2022-12-22T03:03:45;10.23;;;4.22;;
21492;SDS011;10908;50.690;4.400;2022-12-22T03:06:30;6.65;;;4.07;;
21492;SDS011;10908;50.690;4.400;2022-12-22T03:09:14;7.63;;;3.70;;
21492;SDS011;10908;50.690;4.400;2022-12-22T03:11:58;66.35;;;5.10;;
21492;SDS011;10908;50.690;4.400;2022-12-22T03:14:42;83.95;;;5.80;;
21492;SDS011;10908;50.690;4.400;2022-12-22T03:17:26;6.55;;;3.65;;
21492;SDS011;10908;50.690;4.400;2022-12-22T03:20:10;7.53;;;4.05;;
21492;SDS011;10908;50.690;4.400;2022-12-22T03:22:54;7.35;;;3.70;;
21492;SDS011;10908;50.690;4.400;2022-12-22T03:25:39;6.95;;;3.80;;
21492;SDS011;10908;50.690;4.400;2022-12-22T03:28:23;7.20;;;3.92;;
21492;SDS011;10908;50.690;4.400;2022-12-22T03:30:51;7.35;;;3.72;;
21492;SDS011;10908;50.690;4.400;2022-12-22T03:33:28;6.82;;;3.65;;
21492;SDS011;10908;50.690;4.400;2022-12-22T03:35:55;6.50;;;3.78;;
21492;SDS011;10908;50.690;4.400;2022-12-22T03:38:21;7.38;;;3.38;;
21492;SDS011;10908;50.690;4.400;2022-12-22T03:40:47;13.45;;;3.55;;
21492;SDS011;10908;50.690;4.400;2022-12-22T03:43:13;5.50;;;2.85;;
21492;SDS011;10908;50.690;4.400;2022-12-22T03:45:58;14.23;;;3.42;;
21492;SDS011;10908;50.690;4.400;2022-12-22T03:48:43;7.22;;;3.42;;
21492;SDS011;10908;50.690;4.400;2022-12-22T03:51:29;6.97;;;3.50;;
21492;SDS011;10908;50.690;4.400;2022-12-22T03:53:55;6.35;;;3.67;;
21492;SDS011;10908;50.690;4.400;2022-12-22T03:56:21;5.82;;;3.30;;
21492;SDS011;10908;50.690;4.400;2022-12-22T03:58:47;6.90;;;3.60;;
21492;SDS011;10908;50.690;4.400;2022-12-22T04:01:12;6.05;;;3.50;;
21492;SDS011;10908;50.690;4.400;2022-12-22T04:03:38;5.43;;;3.25;;
21492;SDS011;10908;50.690;4.400;2022-12-22T04:06:03;7.07;;;3.40;;
21492;SDS011;10908;50.690;4.400;2022-12-22T04:08:29;8.27;;;3.50;;
21492;SDS011;10908;50.690;4.400;2022-12-22T04:10:55;6.43;;;3.10;;
21492;SDS011;10908;50.690;4.400;2022-12-22T04:13:39;5.28;;;2.85;;
21492;SDS011;10908;50.690;4.400;2022-12-22T04:16:04;4.93;;;2.33;;
21492;SDS011;10908;50.690;4.400;2022-12-22T04:18:30;5.28;;;2.38;;
21492;SDS011;10908;50.690;4.400;2022-12-22T04:20:56;3.78;;;2.10;;
21492;SDS011;10908;50.690;4.400;2022-12-22T04:23:22;3.95;;;1.95;;
21492;SDS011;10908;50.690;4.400;2022-12-22T04:25:47;3.90;;;2.00;;
21492;SDS011;10908;50.690;4.400;2022-12-22T04:28:13;4.00;;;1.83;;
21492;SDS011;10908;50.690;4.400;2022-12-22T04:30:39;3.78;;;1.85;;
21492;SDS011;10908;50.690;4.400;2022-12-22T04:33:04;3.63;;;1.70;;
21492;SDS011;10908;50.690;4.400;2022-12-22T04:35:30;4.28;;;1.90;;
21492;SDS011;10908;50.690;4.400;2022-12-22T04:37:55;4.30;;;1.90;;
21492;SDS011;10908;50.690;4.400;2022-12-22T04:40:21;3.50;;;1.60;;
21492;SDS011;10908;50.690;4.400;2022-12-22T04:42:47;4.10;;;1.85;;
21492;SDS011;10908;50.690;4.400;2022-12-22T04:45:12;4.05;;;1.92;;
21492;SDS011;10908;50.690;4.400;2022-12-22T04:47:38;4.63;;;2.25;;
21492;SDS011;10908;50.690;4.400;2022-12-22T04:50:04;4.93;;;2.70;;
21492;SDS011;10908;50.690;4.400;2022-12-22T04:52:30;7.47;;;2.88;;
21492;SDS011;10908;50.690;4.400;2022-12-22T04:54:55;6.72;;;3.63;;
21492;SDS011;10908;50.690;4.400;2022-12-22T04:57:21;8.13;;;4.22;;
21492;SDS011;10908;50.690;4.400;2022-12-22T04:59:47;9.10;;;4.70;;
21492;SDS011;10908;50.690;4.400;2022-12-22T05:02:12;8.30;;;4.72;;
21492;SDS011;10908;50.690;4.400;2022-12-22T05:04:38;9.45;;;5.65;;
21492;SDS011;10908;50.690;4.400;2022-12-22T05:07:04;9.15;;;5.28;;
21492;SDS011;10908;50.690;4.400;2022-12-22T05:09:31;9.25;;;4.90;;
21492;SDS011;10908;50.690;4.400;2022-12-22T05:11:57;7.72;;;4.28;;
21492;SDS011;10908;50.690;4.400;2022-12-22T05:14:23;6.68;;;3.78;;
21492;SDS011;10908;50.690;4.400;2022-12-22T05:16:48;6.03;;;3.40;;
21492;SDS011;10908;50.690;4.400;2022-12-22T05:19:14;6.13;;;3.55;;
21492;SDS011;10908;50.690;4.400;2022-12-22T05:21:40;5.70;;;3.30;;
21492;SDS011;10908;50.690;4.400;2022-12-22T05:24:06;5.88;;;3.30;;
21492;SDS011;10908;50.690;4.400;2022-12-22T05:26:31;6.28;;;3.35;;
21492;SDS011;10908;50.690;4.400;2022-12-22T05:28:57;6.22;;;3.50;;
21492;SDS011;10908;50.690;4.400;2022-12-22T05:31:24;6.60;;;3.80;;
21492;SDS011;10908;50.690;4.400;2022-12-22T05:33:50;6.82;;;3.78;;
21492;SDS011;10908;50.690;4.400;2022-12-22T05:36:16;7.18;;;3.95;;
21492;SDS011;10908;50.690;4.400;2022-12-22T05:38:42;7.50;;;4.45;;
21492;SDS011;10908;50.690;4.400;2022-12-22T05:41:08;10.00;;;4.90;;
21492;SDS011;10908;50.690;4.400;2022-12-22T05:43:34;8.93;;;4.65;;
21492;SDS011;10908;50.690;4.400;2022-12-22T05:48:44;10.18;;;5.43;;
21492;SDS011;10908;50.690;4.400;2022-12-22T05:51:09;11.48;;;5.90;;
21492;SDS011;10908;50.690;4.400;2022-12-22T05:53:35;12.57;;;7.35;;
21492;SDS011;10908;50.690;4.400;2022-12-22T05:56:01;12.35;;;6.95;;
21492;SDS011;10908;50.690;4.400;2022-12-22T05:58:27;14.30;;;7.65;;
21492;SDS011;10908;50.690;4.400;2022-12-22T06:00:56;16.05;;;8.95;;
21492;SDS011;10908;50.690;4.400;2022-12-22T06:03:23;18.60;;;9.82;;
21492;SDS011;10908;50.690;4.400;2022-12-22T06:05:53;18.50;;;10.20;;
21492;SDS011;10908;50.690;4.400;2022-12-22T06:08:19;16.80;;;9.35;;
21492;SDS011;10908;50.690;4.400;2022-12-22T06:10:45;15.68;;;9.15;;
21492;SDS011;10908;50.690;4.400;2022-12-22T06:13:11;18.13;;;10.02;;
21492;SDS011;10908;50.690;4.400;2022-12-22T06:15:36;19.27;;;10.43;;
21492;SDS011;10908;50.690;4.400;2022-12-22T06:18:02;20.15;;;10.23;;
21492;SDS011;10908;50.690;4.400;2022-12-22T06:20:27;20.88;;;11.13;;
21492;SDS011;10908;50.690;4.400;2022-12-22T06:22:53;21.65;;;11.48;;
21492;SDS011;10908;50.690;4.400;2022-12-22T06:25:19;19.77;;;11.43;;
21492;SDS011;10908;50.690;4.400;2022-12-22T06:27:45;21.70;;;11.73;;
21492;SDS011;10908;50.690;4.400;2022-12-22T06:30:11;21.83;;;11.35;;
21492;SDS011;10908;50.690;4.400;2022-12-22T06:32:37;21.38;;;11.50;;
21492;SDS011;10908;50.690;4.400;2022-12-22T06:35:04;22.05;;;11.52;;
21492;SDS011;10908;50.690;4.400;2022-12-22T06:37:30;21.50;;;11.93;;
21492;SDS011;10908;50.690;4.400;2022-12-22T06:39:56;20.95;;;11.25;;
21492;SDS011;10908;50.690;4.400;2022-12-22T06:42:22;22.08;;;11.57;;
21492;SDS011;10908;50.690;4.400;2022-12-22T06:45:06;22.40;;;11.27;;
21492;SDS011;10908;50.690;4.400;2022-12-22T06:47:32;25.60;;;11.95;;
21492;SDS011;10908;50.690;4.400;2022-12-22T06:49:58;25.25;;;12.68;;
21492;SDS011;10908;50.690;4.400;2022-12-22T06:52:23;26.63;;;12.38;;
21492;SDS011;10908;50.690;4.400;2022-12-22T06:54:49;23.48;;;12.40;;
21492;SDS011;10908;50.690;4.400;2022-12-22T06:57:14;25.38;;;12.65;;
21492;SDS011;10908;50.690;4.400;2022-12-22T06:59:40;19.55;;;10.45;;
21492;SDS011;10908;50.690;4.400;2022-12-22T07:02:07;22.88;;;11.20;;
21492;SDS011;10908;50.690;4.400;2022-12-22T07:04:34;17.63;;;8.95;;
21492;SDS011;10908;50.690;4.400;2022-12-22T07:07:00;17.98;;;9.68;;
21492;SDS011;10908;50.690;4.400;2022-12-22T07:09:25;18.15;;;9.57;;
21492;SDS011;10908;50.690;4.400;2022-12-22T07:11:51;20.75;;;9.93;;
21492;SDS011;10908;50.690;4.400;2022-12-22T07:14:17;18.27;;;9.70;;
21492;SDS011;10908;50.690;4.400;2022-12-22T07:16:42;18.88;;;9.27;;
21492;SDS011;10908;50.690;4.400;2022-12-22T07:19:08;21.05;;;10.77;;
21492;SDS011;10908;50.690;4.400;2022-12-22T07:21:33;20.73;;;10.32;;
21492;SDS011;10908;50.690;4.400;2022-12-22T07:23:59;22.38;;;11.57;;
21492;SDS011;10908;50.690;4.400;2022-12-22T07:26:25;21.98;;;11.07;;
21492;SDS011;10908;50.690;4.400;2022-12-22T07:28:50;24.88;;;12.45;;
21492;SDS011;10908;50.690;4.400;2022-12-22T07:31:16;27.35;;;13.38;;
21492;SDS011;10908;50.690;4.400;2022-12-22T07:33:42;31.10;;;14.18;;
21492;SDS011;10908;50.690;4.400;2022-12-22T07:36:12;34.22;;;14.77;;
21492;SDS011;10908;50.690;4.400;2022-12-22T07:38:40;35.95;;;15.02;;
21492;SDS011;10908;50.690;4.400;2022-12-22T07:41:07;35.25;;;15.38;;
21492;SDS011;10908;50.690;4.400;2022-12-22T07:43:53;38.97;;;16.10;;
21492;SDS011;10908;50.690;4.400;2022-12-22T07:46:22;40.95;;;16.80;;
21492;SDS011;10908;50.690;4.400;2022-12-22T07:48:48;43.03;;;17.77;;
21492;SDS011;10908;50.690;4.400;2022-12-22T07:51:33;42.80;;;17.50;;
21492;SDS011;10908;50.690;4.400;2022-12-22T07:54:00;39.08;;;17.42;;
21492;SDS011;10908;50.690;4.400;2022-12-22T07:56:28;40.70;;;17.20;;
21492;SDS011;10908;50.690;4.400;2022-12-22T07:58:54;43.58;;;17.45;;
21492;SDS011;10908;50.690;4.400;2022-12-22T08:01:20;39.90;;;17.48;;
21492;SDS011;10908;50.690;4.400;2022-12-22T08:03:45;40.60;;;17.77;;
21492;SDS011;10908;50.690;4.400;2022-12-22T08:06:11;42.00;;;18.05;;
21492;SDS011;10908;50.690;4.400;2022-12-22T08:08:36;36.38;;;17.08;;
21492;SDS011;10908;50.690;4.400;2022-12-22T08:11:02;32.17;;;14.20;;
21492;SDS011;10908;50.690;4.400;2022-12-22T08:13:28;35.13;;;14.68;;
21492;SDS011;10908;50.690;4.400;2022-12-22T08:15:55;27.25;;;13.05;;
21492;SDS011;10908;50.690;4.400;2022-12-22T08:18:25;32.17;;;14.05;;
21492;SDS011;10908;50.690;4.400;2022-12-22T08:20:51;30.70;;;14.55;;
21492;SDS011;10908;50.690;4.400;2022-12-22T08:23:17;29.38;;;14.15;;
21492;SDS011;10908;50.690;4.400;2022-12-22T08:25:43;38.80;;;16.38;;
21492;SDS011;10908;50.690;4.400;2022-12-22T08:28:11;37.50;;;16.88;;
21492;SDS011;10908;50.690;4.400;2022-12-22T08:30:39;36.50;;;16.95;;
21492;SDS011;10908;50.690;4.400;2022-12-22T08:33:05;35.05;;;16.40;;
21492;SDS011;10908;50.690;4.400;2022-12-22T08:35:30;38.53;;;16.50;;
21492;SDS011;10908;50.690;4.400;2022-12-22T08:37:56;37.40;;;16.83;;
21492;SDS011;10908;50.690;4.400;2022-12-22T08:40:22;38.60;;;16.67;;
21492;SDS011;10908;50.690;4.400;2022-12-22T08:42:53;38.28;;;17.52;;
21492;SDS011;10908;50.690;4.400;2022-12-22T08:45:23;35.42;;;16.20;;
21492;SDS011;10908;50.690;4.400;2022-12-22T08:47:49;36.67;;;16.88;;
21492;SDS011;10908;50.690;4.400;2022-12-22T08:50:15;34.42;;;16.02;;
21492;SDS011;10908;50.690;4.400;2022-12-22T08:52:40;38.53;;;17.30;;
21492;SDS011;10908;50.690;4.400;2022-12-22T08:55:06;35.38;;;16.00;;
21492;SDS011;10908;50.690;4.400;2022-12-22T08:57:32;32.00;;;15.13;;
21492;SDS011;10908;50.690;4.400;2022-12-22T08:59:58;32.78;;;14.60;;
21492;SDS011;10908;50.690;4.400;2022-12-22T09:02:24;30.60;;;14.32;;
21492;SDS011;10908;50.690;4.400;2022-12-22T09:04:50;38.88;;;18.00;;
21492;SDS011;10908;50.690;4.400;2022-12-22T09:07:16;37.75;;;17.80;;
21492;SDS011;10908;50.690;4.400;2022-12-22T09:09:42;29.00;;;15.45;;
21492;SDS011;10908;50.690;4.400;2022-12-22T09:12:08;33.88;;;18.00;;
21492;SDS011;10908;50.690;4.400;2022-12-22T09:14:35;33.97;;;16.40;;
21492;SDS011;10908;50.690;4.400;2022-12-22T09:17:00;31.60;;;15.48;;
21492;SDS011;10908;50.690;4.400;2022-12-22T09:19:26;30.63;;;16.08;;
21492;SDS011;10908;50.690;4.400;2022-12-22T09:21:51;26.95;;;14.05;;
21492;SDS011;10908;50.690;4.400;2022-12-22T09:24:17;30.30;;;14.32;;
21492;SDS011;10908;50.690;4.400;2022-12-22T09:26:43;29.52;;;15.30;;
21492;SDS011;10908;50.690;4.400;2022-12-22T09:29:09;29.13;;;15.60;;
21492;SDS011;10908;50.690;4.400;2022-12-22T09:31:35;30.50;;;15.82;;
21492;SDS011;10908;50.690;4.400;2022-12-22T09:34:00;33.13;;;17.63;;
21492;SDS011;10908;50.690;4.400;2022-12-22T09:36:27;30.13;;;17.15;;
21492;SDS011;10908;50.690;4.400;2022-12-22T09:38:54;36.40;;;18.75;;
21492;SDS011;10908;50.690;4.400;2022-12-22T09:41:36;36.60;;;17.33;;
21492;SDS011;10908;50.690;4.400;2022-12-22T09:44:33;30.30;;;17.73;;
21492;SDS011;10908;50.690;4.400;2022-12-22T09:47:00;30.75;;;17.27;;
21492;SDS011;10908;50.690;4.400;2022-12-22T09:49:28;30.58;;;16.40;;
21492;SDS011;10908;50.690;4.400;2022-12-22T09:51:55;29.40;;;17.38;;
21492;SDS011;10908;50.690;4.400;2022-12-22T09:54:22;30.92;;;18.13;;
21492;SDS011;10908;50.690;4.400;2022-12-22T09:56:49;32.05;;;18.60;;
21492;SDS011;10908;50.690;4.400;2022-12-22T09:59:15;31.10;;;18.10;;
21492;SDS011;10908;50.690;4.400;2022-12-22T10:07:24;26.92;;;15.70;;
21492;SDS011;10908;50.690;4.400;2022-12-22T10:09:56;23.80;;;15.23;;
21492;SDS011;10908;50.690;4.400;2022-12-22T10:12:28;23.50;;;13.82;;
21492;SDS011;10908;50.690;4.400;2022-12-22T10:14:54;18.05;;;11.15;;
21492;SDS011;10908;50.690;4.400;2022-12-22T10:17:24;19.35;;;11.05;;
21492;SDS011;10908;50.690;4.400;2022-12-22T10:19:53;17.88;;;9.60;;
21492;SDS011;10908;50.690;4.400;2022-12-22T10:22:35;18.27;;;9.60;;
21492;SDS011;10908;50.690;4.400;2022-12-22T10:25:22;16.67;;;10.00;;
21492;SDS011;10908;50.690;4.400;2022-12-22T10:27:50;14.90;;;8.95;;
21492;SDS011;10908;50.690;4.400;2022-12-22T10:30:24;15.85;;;9.05;;
21492;SDS011;10908;50.690;4.400;2022-12-22T10:33:03;18.08;;;8.98;;
21492;SDS011;10908;50.690;4.400;2022-12-22T10:38:24;16.52;;;8.40;;
21492;SDS011;10908;50.690;4.400;2022-12-22T10:40:52;14.52;;;7.60;;
21492;SDS011;10908;50.690;4.400;2022-12-22T10:43:24;16.63;;;8.38;;
21492;SDS011;10908;50.690;4.400;2022-12-22T10:45:57;14.40;;;7.40;;
21492;SDS011;10908;50.690;4.400;2022-12-22T10:48:27;13.00;;;8.30;;
21492;SDS011;10908;50.690;4.400;2022-12-22T10:51:01;13.98;;;7.55;;
21492;SDS011;10908;50.690;4.400;2022-12-22T10:53:36;13.15;;;7.10;;
21492;SDS011;10908;50.690;4.400;2022-12-22T10:56:17;9.02;;;4.93;;
21492;SDS011;10908;50.690;4.400;2022-12-22T10:58:46;11.25;;;6.05;;
21492;SDS011;10908;50.690;4.400;2022-12-22T11:01:14;11.07;;;4.88;;
21492;SDS011;10908;50.690;4.400;2022-12-22T11:03:48;11.80;;;4.40;;
21492;SDS011;10908;50.690;4.400;2022-12-22T11:06:14;10.38;;;4.43;;
21492;SDS011;10908;50.690;4.400;2022-12-22T11:08:40;8.15;;;4.07;;
21492;SDS011;10908;50.690;4.400;2022-12-22T11:11:26;9.00;;;3.50;;
21492;SDS011;10908;50.690;4.400;2022-12-22T11:22:35;8.80;;;2.92;;
21492;SDS011;10908;50.690;4.400;2022-12-22T11:25:40;7.10;;;2.78;;
21492;SDS011;10908;50.690;4.400;2022-12-22T11:37:08;7.85;;;2.70;;
21492;SDS011;10908;50.690;4.400;2022-12-22T11:39:59;8.13;;;2.85;;
21492;SDS011;10908;50.690;4.400;2022-12-22T11:51:15;6.82;;;2.45;;
21492;SDS011;10908;50.690;4.400;2022-12-22T11:54:29;6.43;;;3.05;;
21492;SDS011;10908;50.690;4.400;2022-12-22T11:57:36;7.28;;;2.72;;
21492;SDS011;10908;50.690;4.400;2022-12-22T12:00:19;7.28;;;2.70;;
21492;SDS011;10908;50.690;4.400;2022-12-22T12:16:36;7.85;;;2.60;;
21492;SDS011;10908;50.690;4.400;2022-12-22T12:19:16;5.45;;;2.08;;
21492;SDS011;10908;50.690;4.400;2022-12-22T12:30:04;4.65;;;1.70;;
21492;SDS011;10908;50.690;4.400;2022-12-22T12:35:50;5.30;;;1.92;;
21492;SDS011;10908;50.690;4.400;2022-12-22T12:38:24;4.30;;;1.65;;
21492;SDS011;10908;50.690;4.400;2022-12-22T12:43:44;5.97;;;1.92;;
21492;SDS011;10908;50.690;4.400;2022-12-22T12:46:53;6.00;;;2.30;;
21492;SDS011;10908;50.690;4.400;2022-12-22T12:57:21;6.25;;;2.47;;
21492;SDS011;10908;50.690;4.400;2022-12-22T12:59:51;5.93;;;2.35;;
21492;SDS011;10908;50.690;4.400;2022-12-22T13:05:02;5.70;;;2.72;;
21492;SDS011;10908;50.690;4.400;2022-12-22T13:18:44;7.50;;;4.05;;
21492;SDS011;10908;50.690;4.400;2022-12-22T13:21:14;8.23;;;4.35;;
21492;SDS011;10908;50.690;4.400;2022-12-22T13:26:35;9.35;;;4.32;;
21492;SDS011;10908;50.690;4.400;2022-12-22T13:29:18;8.57;;;4.85;;
21492;SDS011;10908;50.690;4.400;2022-12-22T13:37:19;9.35;;;4.80;;
21492;SDS011;10908;50.690;4.400;2022-12-22T13:42:47;10.23;;;4.57;;
21492;SDS011;10908;50.690;4.400;2022-12-22T13:45:17;11.90;;;4.78;;
21492;SDS011;10908;50.690;4.400;2022-12-22T13:48:06;13.55;;;4.80;;
21492;SDS011;10908;50.690;4.400;2022-12-22T13:50:48;12.50;;;4.75;;
21492;SDS011;10908;50.690;4.400;2022-12-22T13:53:39;10.38;;;4.47;;
21492;SDS011;10908;50.690;4.400;2022-12-22T13:56:07;15.60;;;4.47;;
21492;SDS011;10908;50.690;4.400;2022-12-22T13:58:40;14.90;;;4.50;;
21492;SDS011;10908;50.690;4.400;2022-12-22T14:03:35;13.98;;;4.20;;
21492;SDS011;10908;50.690;4.400;2022-12-22T14:06:01;18.48;;;5.10;;
21492;SDS011;10908;50.690;4.400;2022-12-22T14:08:41;16.35;;;4.18;;
21492;SDS011;10908;50.690;4.400;2022-12-22T14:11:07;19.85;;;4.70;;
21492;SDS011;10908;50.690;4.400;2022-12-22T14:13:33;19.45;;;4.85;;
21492;SDS011;10908;50.690;4.400;2022-12-22T14:16:00;29.88;;;5.63;;
21492;SDS011;10908;50.690;4.400;2022-12-22T14:18:26;27.85;;;4.40;;
21492;SDS011;10908;50.690;4.400;2022-12-22T14:20:53;26.67;;;4.00;;
21492;SDS011;10908;50.690;4.400;2022-12-22T14:23:30;25.40;;;4.15;;
21492;SDS011;10908;50.690;4.400;2022-12-22T14:26:02;27.92;;;4.85;;
21492;SDS011;10908;50.690;4.400;2022-12-22T14:28:31;24.63;;;4.55;;
21492;SDS011;10908;50.690;4.400;2022-12-22T14:31:04;29.77;;;4.78;;
21492;SDS011;10908;50.690;4.400;2022-12-22T14:33:32;29.30;;;4.60;;
21492;SDS011;10908;50.690;4.400;2022-12-22T14:38:46;38.05;;;5.05;;
21492;SDS011;10908;50.690;4.400;2022-12-22T14:46:44;31.65;;;4.85;;
21492;SDS011;10908;50.690;4.400;2022-12-22T14:49:26;39.05;;;5.18;;
21492;SDS011;10908;50.690;4.400;2022-12-22T14:51:55;36.28;;;5.70;;
21492;SDS011;10908;50.690;4.400;2022-12-22T14:54:26;35.45;;;4.68;;
21492;SDS011;10908;50.690;4.400;2022-12-22T14:56:53;34.17;;;5.85;;
21492;SDS011;10908;50.690;4.400;2022-12-22T14:59:26;36.15;;;5.10;;
21492;SDS011;10908;50.690;4.400;2022-12-22T15:01:56;36.80;;;5.60;;
21492;SDS011;10908;50.690;4.400;2022-12-22T15:04:44;35.65;;;5.88;;
21492;SDS011;10908;50.690;4.400;2022-12-22T15:07:17;38.13;;;5.40;;
21492;SDS011;10908;50.690;4.400;2022-12-22T15:09:44;47.08;;;7.22;;
21492;SDS011;10908;50.690;4.400;2022-12-22T15:12:11;41.65;;;6.50;;
21492;SDS011;10908;50.690;4.400;2022-12-22T15:14:39;37.70;;;5.80;;
21492;SDS011;10908;50.690;4.400;2022-12-22T15:17:06;45.63;;;6.15;;
21492;SDS011;10908;50.690;4.400;2022-12-22T15:19:41;43.80;;;6.22;;
21492;SDS011;10908;50.690;4.400;2022-12-22T15:22:07;43.90;;;6.28;;
21492;SDS011;10908;50.690;4.400;2022-12-22T15:24:32;45.38;;;6.18;;
21492;SDS011;10908;50.690;4.400;2022-12-22T15:26:58;46.33;;;7.18;;
21492;SDS011;10908;50.690;4.400;2022-12-22T15:29:24;53.53;;;7.32;;
21492;SDS011;10908;50.690;4.400;2022-12-22T15:31:49;45.25;;;5.97;;
21492;SDS011;10908;50.690;4.400;2022-12-22T15:34:25;50.47;;;6.90;;
21492;SDS011;10908;50.690;4.400;2022-12-22T15:36:55;43.78;;;6.47;;
21492;SDS011;10908;50.690;4.400;2022-12-22T15:39:21;42.40;;;5.90;;
21492;SDS011;10908;50.690;4.400;2022-12-22T15:41:47;45.95;;;7.13;;
21492;SDS011;10908;50.690;4.400;2022-12-22T15:55:59;57.53;;;7.43;;
21492;SDS011;10908;50.690;4.400;2022-12-22T15:58:26;42.65;;;6.68;;
21492;SDS011;10908;50.690;4.400;2022-12-22T16:00:58;59.03;;;7.20;;
21492;SDS011;10908;50.690;4.400;2022-12-22T16:03:23;48.60;;;8.40;;
21492;SDS011;10908;50.690;4.400;2022-12-22T16:05:49;49.70;;;6.75;;
21492;SDS011;10908;50.690;4.400;2022-12-22T16:08:18;43.33;;;6.68;;
21492;SDS011;10908;50.690;4.400;2022-12-22T16:10:47;55.28;;;7.20;;
21492;SDS011;10908;50.690;4.400;2022-12-22T16:13:14;46.45;;;6.75;;
21492;SDS011;10908;50.690;4.400;2022-12-22T16:15:40;54.03;;;7.05;;
21492;SDS011;10908;50.690;4.400;2022-12-22T16:18:09;45.97;;;6.90;;
21492;SDS011;10908;50.690;4.400;2022-12-22T16:20:36;59.33;;;7.68;;
21492;SDS011;10908;50.690;4.400;2022-12-22T16:23:06;47.65;;;6.97;;
21492;SDS011;10908;50.690;4.400;2022-12-22T16:25:37;55.13;;;8.73;;
21492;SDS011;10908;50.690;4.400;2022-12-22T16:28:03;56.90;;;6.97;;
21492;SDS011;10908;50.690;4.400;2022-12-22T16:30:30;51.03;;;7.18;;
21492;SDS011;10908;50.690;4.400;2022-12-22T16:32:57;51.95;;;7.80;;
21492;SDS011;10908;50.690;4.400;2022-12-22T16:35:25;56.55;;;7.63;;
21492;SDS011;10908;50.690;4.400;2022-12-22T16:37:54;52.00;;;6.85;;
21492;SDS011;10908;50.690;4.400;2022-12-22T16:40:21;54.40;;;7.43;;
21492;SDS011;10908;50.690;4.400;2022-12-22T16:42:48;52.25;;;6.97;;
21492;SDS011;10908;50.690;4.400;2022-12-22T16:45:25;52.83;;;7.60;;
21492;SDS011;10908;50.690;4.400;2022-12-22T16:47:52;56.45;;;7.70;;
21492;SDS011;10908;50.690;4.400;2022-12-22T16:50:22;50.13;;;7.43;;
21492;SDS011;10908;50.690;4.400;2022-12-22T16:52:56;54.88;;;7.05;;
21492;SDS011;10908;50.690;4.400;2022-12-22T16:55:34;51.47;;;6.72;;
21492;SDS011;10908;50.690;4.400;2022-12-22T16:58:03;49.72;;;6.85;;
21492;SDS011;10908;50.690;4.400;2022-12-22T17:00:29;54.92;;;7.43;;
21492;SDS011;10908;50.690;4.400;2022-12-22T17:03:03;54.13;;;6.72;;
21492;SDS011;10908;50.690;4.400;2022-12-22T17:05:46;59.63;;;7.40;;
21492;SDS011;10908;50.690;4.400;2022-12-22T17:08:22;49.10;;;6.63;;
21492;SDS011;10908;50.690;4.400;2022-12-22T17:10:52;48.25;;;6.88;;
21492;SDS011;10908;50.690;4.400;2022-12-22T17:13:19;53.65;;;6.75;;
21492;SDS011;10908;50.690;4.400;2022-12-22T17:15:45;50.50;;;6.75;;
21492;SDS011;10908;50.690;4.400;2022-12-22T17:18:24;43.35;;;6.25;;
21492;SDS011;10908;50.690;4.400;2022-12-22T17:20:51;49.70;;;7.18;;
21492;SDS011;10908;50.690;4.400;2022-12-22T17:23:32;46.20;;;6.35;;
21492;SDS011;10908;50.690;4.400;2022-12-22T17:26:02;39.45;;;5.93;;
21492;SDS011;10908;50.690;4.400;2022-12-22T17:28:32;44.65;;;6.78;;
21492;SDS011;10908;50.690;4.400;2022-12-22T17:30:58;34.95;;;5.40;;
21492;SDS011;10908;50.690;4.400;2022-12-22T17:33:24;44.85;;;6.85;;
21492;SDS011;10908;50.690;4.400;2022-12-22T17:35:50;45.95;;;5.70;;
21492;SDS011;10908;50.690;4.400;2022-12-22T17:38:19;33.90;;;6.22;;
21492;SDS011;10908;50.690;4.400;2022-12-22T17:40:46;34.78;;;5.57;;